sensor_id;sensor_type;location;lat;lon;timestamp;P1;durP1;ratioP1;P2;durP2;ratioP2
64826;SDS011;51265;53.972;12.286;2023-11-25T00:00:46;2.67;;;0.52;;
64826;SDS011;51265;53.972;12.286;2023-11-25T00:03:13;5.03;;;0.57;;
64826;SDS011;51265;53.972;12.286;2023-11-25T00:05:39;2.85;;;0.77;;
64826;SDS011;51265;53.972;12.286;2023-11-25T00:08:06;1.50;;;0.57;;
64826;SDS011;51265;53.972;12.286;2023-11-25T00:10:33;2.45;;;0.60;;
64826;SDS011;51265;53.972;12.286;2023-11-25T00:13:00;2.58;;;0.30;;
64826;SDS011;51265;53.972;12.286;2023-11-25T00:15:27;5.72;;;0.80;;
64826;SDS011;51265;53.972;12.286;2023-11-25T00:17:54;2.80;;;0.45;;
64826;SDS011;51265;53.972;12.286;2023-11-25T00:20:22;1.80;;;0.32;;
64826;SDS011;51265;53.972;12.286;2023-11-25T00:22:48;3.35;;;0.63;;
64826;SDS011;51265;53.972;12.286;2023-11-25T00:25:14;3.25;;;0.80;;
64826;SDS011;51265;53.972;12.286;2023-11-25T00:27:42;3.30;;;0.45;;
64826;SDS011;51265;53.972;12.286;2023-11-25T00:30:09;3.55;;;0.80;;
64826;SDS011;51265;53.972;12.286;2023-11-25T00:32:35;5.78;;;0.93;;
64826;SDS011;51265;53.972;12.286;2023-11-25T00:35:05;1.88;;;0.90;;
64826;SDS011;51265;53.972;12.286;2023-11-25T00:37:32;2.70;;;0.73;;
64826;SDS011;51265;53.972;12.286;2023-11-25T00:39:58;1.95;;;0.70;;
64826;SDS011;51265;53.972;12.286;2023-11-25T00:42:27;1.95;;;0.40;;
64826;SDS011;51265;53.972;12.286;2023-11-25T00:44:53;4.57;;;0.80;;
64826;SDS011;51265;53.972;12.286;2023-11-25T00:47:20;5.55;;;1.00;;
64826;SDS011;51265;53.972;12.286;2023-11-25T00:49:48;3.15;;;0.65;;
64826;SDS011;51265;53.972;12.286;2023-11-25T00:52:15;2.50;;;0.63;;
64826;SDS011;51265;53.972;12.286;2023-11-25T00:54:41;6.30;;;0.80;;
64826;SDS011;51265;53.972;12.286;2023-11-25T00:57:07;5.68;;;1.15;;
64826;SDS011;51265;53.972;12.286;2023-11-25T00:59:33;3.58;;;0.60;;
64826;SDS011;51265;53.972;12.286;2023-11-25T01:02:00;5.28;;;0.60;;
64826;SDS011;51265;53.972;12.286;2023-11-25T01:04:26;4.25;;;0.70;;
64826;SDS011;51265;53.972;12.286;2023-11-25T01:06:52;2.42;;;0.60;;
64826;SDS011;51265;53.972;12.286;2023-11-25T01:09:19;4.63;;;0.85;;
64826;SDS011;51265;53.972;12.286;2023-11-25T01:11:45;3.60;;;1.10;;
64826;SDS011;51265;53.972;12.286;2023-11-25T01:14:11;5.22;;;0.85;;
64826;SDS011;51265;53.972;12.286;2023-11-25T01:16:38;8.43;;;1.00;;
64826;SDS011;51265;53.972;12.286;2023-11-25T01:19:07;1.83;;;0.60;;
64826;SDS011;51265;53.972;12.286;2023-11-25T01:21:33;2.35;;;0.82;;
64826;SDS011;51265;53.972;12.286;2023-11-25T01:24:00;4.40;;;0.60;;
64826;SDS011;51265;53.972;12.286;2023-11-25T01:26:26;4.88;;;0.80;;
64826;SDS011;51265;53.972;12.286;2023-11-25T01:28:52;7.25;;;0.75;;
64826;SDS011;51265;53.972;12.286;2023-11-25T01:31:18;4.13;;;0.80;;
64826;SDS011;51265;53.972;12.286;2023-11-25T01:33:44;5.93;;;0.80;;
64826;SDS011;51265;53.972;12.286;2023-11-25T01:36:10;2.92;;;0.57;;
64826;SDS011;51265;53.972;12.286;2023-11-25T01:38:37;2.55;;;0.95;;
64826;SDS011;51265;53.972;12.286;2023-11-25T01:41:04;5.18;;;0.95;;
64826;SDS011;51265;53.972;12.286;2023-11-25T01:43:32;5.82;;;1.20;;
64826;SDS011;51265;53.972;12.286;2023-11-25T01:45:58;4.53;;;1.17;;
64826;SDS011;51265;53.972;12.286;2023-11-25T01:48:27;5.00;;;0.90;;
64826;SDS011;51265;53.972;12.286;2023-11-25T01:50:54;7.57;;;1.00;;
64826;SDS011;51265;53.972;12.286;2023-11-25T01:53:21;3.10;;;0.75;;
64826;SDS011;51265;53.972;12.286;2023-11-25T01:55:49;2.95;;;0.82;;
64826;SDS011;51265;53.972;12.286;2023-11-25T01:58:18;4.82;;;1.42;;
64826;SDS011;51265;53.972;12.286;2023-11-25T02:00:46;4.43;;;0.80;;
64826;SDS011;51265;53.972;12.286;2023-11-25T02:03:13;3.58;;;0.82;;
64826;SDS011;51265;53.972;12.286;2023-11-25T02:05:39;6.45;;;0.90;;
64826;SDS011;51265;53.972;12.286;2023-11-25T02:08:06;6.50;;;1.10;;
64826;SDS011;51265;53.972;12.286;2023-11-25T02:10:33;3.65;;;0.82;;
64826;SDS011;51265;53.972;12.286;2023-11-25T02:13:00;5.07;;;1.02;;
64826;SDS011;51265;53.972;12.286;2023-11-25T02:15:29;5.18;;;1.13;;
64826;SDS011;51265;53.972;12.286;2023-11-25T02:17:56;3.13;;;0.85;;
64826;SDS011;51265;53.972;12.286;2023-11-25T02:20:35;8.45;;;1.20;;
64826;SDS011;51265;53.972;12.286;2023-11-25T02:23:04;4.15;;;0.93;;
64826;SDS011;51265;53.972;12.286;2023-11-25T02:25:30;5.28;;;0.90;;
64826;SDS011;51265;53.972;12.286;2023-11-25T02:27:57;3.20;;;0.82;;
64826;SDS011;51265;53.972;12.286;2023-11-25T02:30:24;3.05;;;0.80;;
64826;SDS011;51265;53.972;12.286;2023-11-25T02:32:50;3.90;;;1.00;;
64826;SDS011;51265;53.972;12.286;2023-11-25T02:35:17;5.07;;;1.08;;
64826;SDS011;51265;53.972;12.286;2023-11-25T02:37:43;7.57;;;1.30;;
64826;SDS011;51265;53.972;12.286;2023-11-25T02:40:13;6.85;;;0.98;;
64826;SDS011;51265;53.972;12.286;2023-11-25T02:42:43;6.13;;;1.02;;
64826;SDS011;51265;53.972;12.286;2023-11-25T02:45:17;3.22;;;0.80;;
64826;SDS011;51265;53.972;12.286;2023-11-25T02:47:50;4.40;;;0.88;;
64826;SDS011;51265;53.972;12.286;2023-11-25T02:50:17;6.18;;;0.95;;
64826;SDS011;51265;53.972;12.286;2023-11-25T02:52:45;2.10;;;0.75;;
64826;SDS011;51265;53.972;12.286;2023-11-25T02:55:11;5.63;;;0.73;;
64826;SDS011;51265;53.972;12.286;2023-11-25T02:57:38;2.50;;;0.75;;
64826;SDS011;51265;53.972;12.286;2023-11-25T03:00:10;6.40;;;0.70;;
64826;SDS011;51265;53.972;12.286;2023-11-25T03:02:43;5.97;;;1.13;;
64826;SDS011;51265;53.972;12.286;2023-11-25T03:05:10;5.60;;;1.10;;
64826;SDS011;51265;53.972;12.286;2023-11-25T03:07:39;3.40;;;0.70;;
64826;SDS011;51265;53.972;12.286;2023-11-25T03:10:05;8.75;;;1.10;;
64826;SDS011;51265;53.972;12.286;2023-11-25T03:12:32;9.57;;;1.10;;
64826;SDS011;51265;53.972;12.286;2023-11-25T03:14:58;2.30;;;0.68;;
64826;SDS011;51265;53.972;12.286;2023-11-25T03:17:24;3.03;;;0.95;;
64826;SDS011;51265;53.972;12.286;2023-11-25T03:19:51;5.75;;;0.90;;
64826;SDS011;51265;53.972;12.286;2023-11-25T03:22:17;6.15;;;0.90;;
64826;SDS011;51265;53.972;12.286;2023-11-25T03:24:43;3.08;;;0.77;;
64826;SDS011;51265;53.972;12.286;2023-11-25T03:27:09;4.55;;;1.10;;
64826;SDS011;51265;53.972;12.286;2023-11-25T03:29:36;5.55;;;0.80;;
64826;SDS011;51265;53.972;12.286;2023-11-25T03:32:02;5.85;;;1.00;;
64826;SDS011;51265;53.972;12.286;2023-11-25T03:34:28;5.10;;;1.13;;
64826;SDS011;51265;53.972;12.286;2023-11-25T03:36:54;2.25;;;0.85;;
64826;SDS011;51265;53.972;12.286;2023-11-25T03:39:20;2.75;;;0.85;;
64826;SDS011;51265;53.972;12.286;2023-11-25T03:41:47;4.85;;;0.95;;
64826;SDS011;51265;53.972;12.286;2023-11-25T03:44:13;3.47;;;0.88;;
64826;SDS011;51265;53.972;12.286;2023-11-25T03:46:40;4.88;;;1.02;;
64826;SDS011;51265;53.972;12.286;2023-11-25T03:49:07;3.15;;;0.80;;
64826;SDS011;51265;53.972;12.286;2023-11-25T03:51:36;3.70;;;0.98;;
64826;SDS011;51265;53.972;12.286;2023-11-25T03:54:02;5.25;;;0.60;;
64826;SDS011;51265;53.972;12.286;2023-11-25T03:56:28;3.80;;;0.63;;
64826;SDS011;51265;53.972;12.286;2023-11-25T03:58:54;4.72;;;0.98;;
64826;SDS011;51265;53.972;12.286;2023-11-25T04:01:20;6.43;;;0.80;;
64826;SDS011;51265;53.972;12.286;2023-11-25T04:03:47;7.00;;;0.90;;
64826;SDS011;51265;53.972;12.286;2023-11-25T04:06:13;2.47;;;0.77;;
64826;SDS011;51265;53.972;12.286;2023-11-25T04:08:39;5.70;;;0.80;;
64826;SDS011;51265;53.972;12.286;2023-11-25T04:11:08;2.70;;;1.00;;
64826;SDS011;51265;53.972;12.286;2023-11-25T04:13:35;4.97;;;0.88;;
64826;SDS011;51265;53.972;12.286;2023-11-25T04:16:01;4.40;;;0.63;;
64826;SDS011;51265;53.972;12.286;2023-11-25T04:18:30;5.70;;;0.98;;
64826;SDS011;51265;53.972;12.286;2023-11-25T04:20:56;5.30;;;0.77;;
64826;SDS011;51265;53.972;12.286;2023-11-25T04:23:23;5.43;;;0.70;;
64826;SDS011;51265;53.972;12.286;2023-11-25T04:25:50;6.47;;;0.90;;
64826;SDS011;51265;53.972;12.286;2023-11-25T04:28:16;6.43;;;1.60;;
64826;SDS011;51265;53.972;12.286;2023-11-25T04:30:43;4.10;;;0.73;;
64826;SDS011;51265;53.972;12.286;2023-11-25T04:33:09;5.00;;;0.95;;
64826;SDS011;51265;53.972;12.286;2023-11-25T04:35:35;4.40;;;0.88;;
64826;SDS011;51265;53.972;12.286;2023-11-25T04:38:03;4.05;;;0.80;;
64826;SDS011;51265;53.972;12.286;2023-11-25T04:40:29;7.85;;;1.00;;
64826;SDS011;51265;53.972;12.286;2023-11-25T04:42:56;3.03;;;0.77;;
64826;SDS011;51265;53.972;12.286;2023-11-25T04:45:22;7.55;;;1.00;;
64826;SDS011;51265;53.972;12.286;2023-11-25T04:47:49;3.33;;;0.80;;
64826;SDS011;51265;53.972;12.286;2023-11-25T04:50:16;4.25;;;1.10;;
64826;SDS011;51265;53.972;12.286;2023-11-25T04:52:43;5.30;;;1.05;;
64826;SDS011;51265;53.972;12.286;2023-11-25T04:55:10;4.97;;;1.00;;
64826;SDS011;51265;53.972;12.286;2023-11-25T04:57:40;4.18;;;0.90;;
64826;SDS011;51265;53.972;12.286;2023-11-25T05:00:07;3.47;;;1.00;;
64826;SDS011;51265;53.972;12.286;2023-11-25T05:02:37;3.03;;;0.73;;
64826;SDS011;51265;53.972;12.286;2023-11-25T05:05:04;4.25;;;1.00;;
64826;SDS011;51265;53.972;12.286;2023-11-25T05:07:31;3.75;;;1.08;;
64826;SDS011;51265;53.972;12.286;2023-11-25T05:09:59;4.43;;;0.93;;
64826;SDS011;51265;53.972;12.286;2023-11-25T05:12:25;5.82;;;1.00;;
64826;SDS011;51265;53.972;12.286;2023-11-25T05:14:51;2.47;;;0.80;;
64826;SDS011;51265;53.972;12.286;2023-11-25T05:17:17;5.32;;;0.70;;
64826;SDS011;51265;53.972;12.286;2023-11-25T05:19:44;2.80;;;0.73;;
64826;SDS011;51265;53.972;12.286;2023-11-25T05:22:11;5.40;;;1.10;;
64826;SDS011;51265;53.972;12.286;2023-11-25T05:24:37;4.60;;;0.65;;
64826;SDS011;51265;53.972;12.286;2023-11-25T05:27:03;5.07;;;0.85;;
64826;SDS011;51265;53.972;12.286;2023-11-25T05:29:29;8.57;;;1.10;;
64826;SDS011;51265;53.972;12.286;2023-11-25T05:31:56;5.35;;;0.80;;
64826;SDS011;51265;53.972;12.286;2023-11-25T05:34:26;3.90;;;0.77;;
64826;SDS011;51265;53.972;12.286;2023-11-25T05:36:53;4.10;;;1.00;;
64826;SDS011;51265;53.972;12.286;2023-11-25T05:39:19;5.80;;;0.90;;
64826;SDS011;51265;53.972;12.286;2023-11-25T05:41:46;5.90;;;1.15;;
64826;SDS011;51265;53.972;12.286;2023-11-25T05:44:15;3.85;;;0.70;;
64826;SDS011;51265;53.972;12.286;2023-11-25T05:46:41;4.65;;;0.93;;
64826;SDS011;51265;53.972;12.286;2023-11-25T05:49:07;5.32;;;0.80;;
64826;SDS011;51265;53.972;12.286;2023-11-25T05:51:37;3.40;;;0.60;;
64826;SDS011;51265;53.972;12.286;2023-11-25T05:54:07;5.40;;;1.15;;
64826;SDS011;51265;53.972;12.286;2023-11-25T05:56:34;5.95;;;0.82;;
64826;SDS011;51265;53.972;12.286;2023-11-25T05:59:00;5.95;;;0.73;;
64826;SDS011;51265;53.972;12.286;2023-11-25T06:01:28;4.78;;;0.75;;
64826;SDS011;51265;53.972;12.286;2023-11-25T06:03:54;2.05;;;0.50;;
64826;SDS011;51265;53.972;12.286;2023-11-25T06:06:21;5.10;;;0.88;;
64826;SDS011;51265;53.972;12.286;2023-11-25T06:08:49;4.50;;;1.08;;
64826;SDS011;51265;53.972;12.286;2023-11-25T06:11:22;3.97;;;0.93;;
64826;SDS011;51265;53.972;12.286;2023-11-25T06:13:52;2.10;;;0.73;;
64826;SDS011;51265;53.972;12.286;2023-11-25T06:16:22;1.80;;;0.50;;
64826;SDS011;51265;53.972;12.286;2023-11-25T06:18:49;2.45;;;0.70;;
64826;SDS011;51265;53.972;12.286;2023-11-25T06:21:15;4.75;;;0.73;;
64826;SDS011;51265;53.972;12.286;2023-11-25T06:23:42;2.05;;;0.57;;
64826;SDS011;51265;53.972;12.286;2023-11-25T06:26:11;2.08;;;0.60;;
64826;SDS011;51265;53.972;12.286;2023-11-25T06:28:41;4.10;;;0.77;;
64826;SDS011;51265;53.972;12.286;2023-11-25T06:31:08;8.98;;;1.20;;
64826;SDS011;51265;53.972;12.286;2023-11-25T06:33:38;2.60;;;0.70;;
64826;SDS011;51265;53.972;12.286;2023-11-25T06:36:09;3.25;;;1.42;;
64826;SDS011;51265;53.972;12.286;2023-11-25T06:38:36;3.88;;;1.08;;
64826;SDS011;51265;53.972;12.286;2023-11-25T06:41:03;2.38;;;0.90;;
64826;SDS011;51265;53.972;12.286;2023-11-25T06:43:29;4.32;;;1.15;;
64826;SDS011;51265;53.972;12.286;2023-11-25T06:45:55;3.38;;;0.80;;
64826;SDS011;51265;53.972;12.286;2023-11-25T06:48:21;4.53;;;1.10;;
64826;SDS011;51265;53.972;12.286;2023-11-25T06:50:51;4.20;;;0.77;;
64826;SDS011;51265;53.972;12.286;2023-11-25T06:53:18;4.25;;;1.20;;
64826;SDS011;51265;53.972;12.286;2023-11-25T06:55:44;5.70;;;1.27;;
64826;SDS011;51265;53.972;12.286;2023-11-25T06:58:11;2.40;;;1.02;;
64826;SDS011;51265;53.972;12.286;2023-11-25T07:00:38;7.88;;;1.33;;
64826;SDS011;51265;53.972;12.286;2023-11-25T07:03:05;3.88;;;1.05;;
64826;SDS011;51265;53.972;12.286;2023-11-25T07:05:31;4.53;;;1.40;;
64826;SDS011;51265;53.972;12.286;2023-11-25T07:07:58;7.03;;;1.10;;
64826;SDS011;51265;53.972;12.286;2023-11-25T07:10:24;4.65;;;1.00;;
64826;SDS011;51265;53.972;12.286;2023-11-25T07:12:51;3.85;;;1.10;;
64826;SDS011;51265;53.972;12.286;2023-11-25T07:15:17;3.17;;;1.30;;
64826;SDS011;51265;53.972;12.286;2023-11-25T07:17:43;3.28;;;1.08;;
64826;SDS011;51265;53.972;12.286;2023-11-25T07:20:09;6.65;;;1.17;;
64826;SDS011;51265;53.972;12.286;2023-11-25T07:22:39;3.45;;;0.82;;
64826;SDS011;51265;53.972;12.286;2023-11-25T07:25:06;3.78;;;1.10;;
64826;SDS011;51265;53.972;12.286;2023-11-25T07:27:37;3.70;;;0.85;;
64826;SDS011;51265;53.972;12.286;2023-11-25T07:30:05;5.90;;;0.85;;
64826;SDS011;51265;53.972;12.286;2023-11-25T07:32:32;2.78;;;0.98;;
64826;SDS011;51265;53.972;12.286;2023-11-25T07:34:58;4.32;;;1.05;;
64826;SDS011;51265;53.972;12.286;2023-11-25T07:37:24;3.88;;;0.80;;
64826;SDS011;51265;53.972;12.286;2023-11-25T07:39:51;3.65;;;0.80;;
64826;SDS011;51265;53.972;12.286;2023-11-25T07:42:17;5.88;;;0.95;;
64826;SDS011;51265;53.972;12.286;2023-11-25T07:44:43;2.70;;;0.70;;
64826;SDS011;51265;53.972;12.286;2023-11-25T07:47:09;3.72;;;1.20;;
64826;SDS011;51265;53.972;12.286;2023-11-25T07:49:35;4.15;;;0.90;;
64826;SDS011;51265;53.972;12.286;2023-11-25T07:52:02;3.95;;;1.00;;
64826;SDS011;51265;53.972;12.286;2023-11-25T07:54:29;3.53;;;0.80;;
64826;SDS011;51265;53.972;12.286;2023-11-25T07:56:55;2.72;;;0.93;;
64826;SDS011;51265;53.972;12.286;2023-11-25T07:59:21;3.80;;;0.80;;
64826;SDS011;51265;53.972;12.286;2023-11-25T08:01:47;4.88;;;1.00;;
64826;SDS011;51265;53.972;12.286;2023-11-25T08:04:13;5.90;;;1.05;;
64826;SDS011;51265;53.972;12.286;2023-11-25T08:06:40;5.70;;;1.13;;
64826;SDS011;51265;53.972;12.286;2023-11-25T08:09:06;4.25;;;1.10;;
64826;SDS011;51265;53.972;12.286;2023-11-25T08:11:33;5.50;;;1.20;;
64826;SDS011;51265;53.972;12.286;2023-11-25T08:14:01;3.80;;;1.02;;
64826;SDS011;51265;53.972;12.286;2023-11-25T08:16:27;6.60;;;1.27;;
64826;SDS011;51265;53.972;12.286;2023-11-25T08:18:53;3.42;;;1.20;;
64826;SDS011;51265;53.972;12.286;2023-11-25T08:21:19;2.50;;;0.90;;
64826;SDS011;51265;53.972;12.286;2023-11-25T08:23:45;6.07;;;0.93;;
64826;SDS011;51265;53.972;12.286;2023-11-25T08:26:21;3.67;;;0.90;;
64826;SDS011;51265;53.972;12.286;2023-11-25T08:28:49;4.72;;;1.05;;
64826;SDS011;51265;53.972;12.286;2023-11-25T08:31:16;2.95;;;0.95;;
64826;SDS011;51265;53.972;12.286;2023-11-25T08:33:43;4.60;;;1.15;;
64826;SDS011;51265;53.972;12.286;2023-11-25T08:36:09;4.22;;;0.95;;
64826;SDS011;51265;53.972;12.286;2023-11-25T08:38:37;4.10;;;1.10;;
64826;SDS011;51265;53.972;12.286;2023-11-25T08:41:04;2.22;;;0.80;;
64826;SDS011;51265;53.972;12.286;2023-11-25T08:43:34;2.05;;;0.77;;
64826;SDS011;51265;53.972;12.286;2023-11-25T08:46:03;4.75;;;1.02;;
64826;SDS011;51265;53.972;12.286;2023-11-25T08:48:30;5.03;;;1.48;;
64826;SDS011;51265;53.972;12.286;2023-11-25T08:50:56;5.22;;;1.20;;
64826;SDS011;51265;53.972;12.286;2023-11-25T08:53:23;4.90;;;1.30;;
64826;SDS011;51265;53.972;12.286;2023-11-25T08:55:50;3.22;;;1.40;;
64826;SDS011;51265;53.972;12.286;2023-11-25T08:58:16;5.00;;;1.40;;
64826;SDS011;51265;53.972;12.286;2023-11-25T09:00:42;2.80;;;1.00;;
64826;SDS011;51265;53.972;12.286;2023-11-25T09:03:09;5.03;;;1.38;;
64826;SDS011;51265;53.972;12.286;2023-11-25T09:05:36;4.82;;;1.30;;
64826;SDS011;51265;53.972;12.286;2023-11-25T09:08:06;7.10;;;1.38;;
64826;SDS011;51265;53.972;12.286;2023-11-25T09:10:35;6.60;;;1.20;;
64826;SDS011;51265;53.972;12.286;2023-11-25T09:13:02;4.80;;;1.45;;
64826;SDS011;51265;53.972;12.286;2023-11-25T09:15:28;5.50;;;1.30;;
64826;SDS011;51265;53.972;12.286;2023-11-25T09:17:54;3.40;;;1.05;;
64826;SDS011;51265;53.972;12.286;2023-11-25T09:20:20;5.65;;;1.45;;
64826;SDS011;51265;53.972;12.286;2023-11-25T09:22:48;3.63;;;1.65;;
64826;SDS011;51265;53.972;12.286;2023-11-25T09:25:14;8.52;;;1.45;;
64826;SDS011;51265;53.972;12.286;2023-11-25T09:27:41;3.67;;;1.20;;
64826;SDS011;51265;53.972;12.286;2023-11-25T09:30:08;3.72;;;1.40;;
64826;SDS011;51265;53.972;12.286;2023-11-25T09:32:38;3.60;;;1.27;;
64826;SDS011;51265;53.972;12.286;2023-11-25T09:35:05;8.45;;;1.60;;
64826;SDS011;51265;53.972;12.286;2023-11-25T09:37:35;5.43;;;1.45;;
64826;SDS011;51265;53.972;12.286;2023-11-25T09:40:01;3.30;;;1.52;;
64826;SDS011;51265;53.972;12.286;2023-11-25T09:42:32;7.05;;;1.67;;
64826;SDS011;51265;53.972;12.286;2023-11-25T09:45:02;4.80;;;1.80;;
64826;SDS011;51265;53.972;12.286;2023-11-25T09:47:29;3.50;;;1.70;;
64826;SDS011;51265;53.972;12.286;2023-11-25T09:49:55;7.00;;;2.10;;
64826;SDS011;51265;53.972;12.286;2023-11-25T09:52:21;7.63;;;1.95;;
64826;SDS011;51265;53.972;12.286;2023-11-25T09:54:56;4.35;;;2.03;;
64826;SDS011;51265;53.972;12.286;2023-11-25T09:57:25;5.93;;;1.85;;
64826;SDS011;51265;53.972;12.286;2023-11-25T10:02:34;4.63;;;2.03;;
64826;SDS011;51265;53.972;12.286;2023-11-25T10:05:02;7.95;;;2.28;;
64826;SDS011;51265;53.972;12.286;2023-11-25T10:07:30;4.57;;;1.73;;
64826;SDS011;51265;53.972;12.286;2023-11-25T10:09:56;3.03;;;1.80;;
64826;SDS011;51265;53.972;12.286;2023-11-25T10:12:23;8.27;;;2.30;;
64826;SDS011;51265;53.972;12.286;2023-11-25T10:14:49;3.22;;;2.13;;
64826;SDS011;51265;53.972;12.286;2023-11-25T10:17:16;5.72;;;2.10;;
64826;SDS011;51265;53.972;12.286;2023-11-25T10:19:44;5.53;;;2.05;;
64826;SDS011;51265;53.972;12.286;2023-11-25T10:22:12;5.07;;;1.95;;
64826;SDS011;51265;53.972;12.286;2023-11-25T10:24:45;7.15;;;1.98;;
64826;SDS011;51265;53.972;12.286;2023-11-25T10:27:15;8.63;;;2.42;;
64826;SDS011;51265;53.972;12.286;2023-11-25T10:29:42;5.47;;;2.47;;
64826;SDS011;51265;53.972;12.286;2023-11-25T10:32:09;5.63;;;2.05;;
64826;SDS011;51265;53.972;12.286;2023-11-25T10:34:36;4.32;;;1.55;;
64826;SDS011;51265;53.972;12.286;2023-11-25T10:37:05;4.10;;;1.58;;
64826;SDS011;51265;53.972;12.286;2023-11-25T10:39:36;2.83;;;1.40;;
64826;SDS011;51265;53.972;12.286;2023-11-25T10:42:03;2.85;;;1.60;;
64826;SDS011;51265;53.972;12.286;2023-11-25T10:44:33;4.88;;;1.40;;
64826;SDS011;51265;53.972;12.286;2023-11-25T10:47:04;3.95;;;1.70;;
64826;SDS011;51265;53.972;12.286;2023-11-25T10:49:31;4.78;;;1.50;;
64826;SDS011;51265;53.972;12.286;2023-11-25T10:51:58;2.95;;;1.92;;
64826;SDS011;51265;53.972;12.286;2023-11-25T10:54:28;3.35;;;1.55;;
64826;SDS011;51265;53.972;12.286;2023-11-25T10:57:01;3.67;;;1.63;;
64826;SDS011;51265;53.972;12.286;2023-11-25T10:59:32;5.13;;;1.83;;
64826;SDS011;51265;53.972;12.286;2023-11-25T11:02:01;3.00;;;1.80;;
64826;SDS011;51265;53.972;12.286;2023-11-25T11:04:32;4.53;;;2.15;;
64826;SDS011;51265;53.972;12.286;2023-11-25T11:07:07;2.60;;;1.52;;
64826;SDS011;51265;53.972;12.286;2023-11-25T11:09:42;5.03;;;1.60;;
64826;SDS011;51265;53.972;12.286;2023-11-25T11:12:16;5.45;;;2.10;;
64826;SDS011;51265;53.972;12.286;2023-11-25T11:14:54;3.63;;;2.20;;
64826;SDS011;51265;53.972;12.286;2023-11-25T11:20:27;3.40;;;1.77;;
64826;SDS011;51265;53.972;12.286;2023-11-25T11:22:56;4.90;;;2.40;;
64826;SDS011;51265;53.972;12.286;2023-11-25T11:25:25;4.20;;;2.05;;
64826;SDS011;51265;53.972;12.286;2023-11-25T11:33:41;6.38;;;2.80;;
64826;SDS011;51265;53.972;12.286;2023-11-25T11:36:07;5.13;;;2.70;;
64826;SDS011;51265;53.972;12.286;2023-11-25T11:38:45;7.43;;;1.95;;
64826;SDS011;51265;53.972;12.286;2023-11-25T11:43:39;7.38;;;2.35;;
64826;SDS011;51265;53.972;12.286;2023-11-25T11:46:05;3.72;;;2.17;;
64826;SDS011;51265;53.972;12.286;2023-11-25T11:48:31;5.47;;;1.83;;
64826;SDS011;51265;53.972;12.286;2023-11-25T11:50:58;4.82;;;1.80;;
64826;SDS011;51265;53.972;12.286;2023-11-25T11:53:24;5.30;;;2.22;;
64826;SDS011;51265;53.972;12.286;2023-11-25T11:55:54;4.18;;;2.10;;
64826;SDS011;51265;53.972;12.286;2023-11-25T11:58:21;4.97;;;1.98;;
64826;SDS011;51265;53.972;12.286;2023-11-25T12:03:26;6.72;;;2.50;;
64826;SDS011;51265;53.972;12.286;2023-11-25T12:05:53;5.68;;;1.73;;
64826;SDS011;51265;53.972;12.286;2023-11-25T12:08:20;4.53;;;1.20;;
64826;SDS011;51265;53.972;12.286;2023-11-25T12:10:46;4.43;;;1.80;;
64826;SDS011;51265;53.972;12.286;2023-11-25T12:13:25;4.22;;;1.63;;
64826;SDS011;51265;53.972;12.286;2023-11-25T12:15:56;3.60;;;1.45;;
64826;SDS011;51265;53.972;12.286;2023-11-25T12:18:27;2.58;;;0.95;;
64826;SDS011;51265;53.972;12.286;2023-11-25T12:20:54;4.10;;;0.88;;
64826;SDS011;51265;53.972;12.286;2023-11-25T12:23:23;2.58;;;0.73;;
64826;SDS011;51265;53.972;12.286;2023-11-25T12:25:51;5.55;;;0.60;;
64826;SDS011;51265;53.972;12.286;2023-11-25T12:28:17;1.70;;;0.38;;
64826;SDS011;51265;53.972;12.286;2023-11-25T12:30:43;2.05;;;0.40;;
64826;SDS011;51265;53.972;12.286;2023-11-25T12:33:10;1.38;;;0.30;;
64826;SDS011;51265;53.972;12.286;2023-11-25T12:35:37;1.33;;;0.38;;
64826;SDS011;51265;53.972;12.286;2023-11-25T12:38:06;1.92;;;0.47;;
64826;SDS011;51265;53.972;12.286;2023-11-25T12:40:33;0.80;;;0.30;;
64826;SDS011;51265;53.972;12.286;2023-11-25T12:43:04;4.13;;;0.50;;
64826;SDS011;51265;53.972;12.286;2023-11-25T12:45:33;4.85;;;0.40;;
64826;SDS011;51265;53.972;12.286;2023-11-25T12:47:59;3.40;;;0.60;;
64826;SDS011;51265;53.972;12.286;2023-11-25T12:50:26;1.67;;;0.40;;
64826;SDS011;51265;53.972;12.286;2023-11-25T12:53:06;2.25;;;0.32;;
64826;SDS011;51265;53.972;12.286;2023-11-25T12:55:40;2.40;;;0.25;;
64826;SDS011;51265;53.972;12.286;2023-11-25T12:58:10;2.50;;;0.60;;
64826;SDS011;51265;53.972;12.286;2023-11-25T13:00:47;1.08;;;0.30;;
64826;SDS011;51265;53.972;12.286;2023-11-25T13:03:20;1.42;;;0.40;;
64826;SDS011;51265;53.972;12.286;2023-11-25T13:06:07;1.70;;;0.52;;
64826;SDS011;51265;53.972;12.286;2023-11-25T13:08:38;2.67;;;0.60;;
64826;SDS011;51265;53.972;12.286;2023-11-25T13:11:11;4.13;;;0.55;;
64826;SDS011;51265;53.972;12.286;2023-11-25T13:13:38;1.30;;;0.30;;
64826;SDS011;51265;53.972;12.286;2023-11-25T13:16:04;2.05;;;0.38;;
64826;SDS011;51265;53.972;12.286;2023-11-25T13:18:34;4.78;;;0.82;;
64826;SDS011;51265;53.972;12.286;2023-11-25T13:21:00;2.33;;;0.32;;
64826;SDS011;51265;53.972;12.286;2023-11-25T13:23:33;2.88;;;0.60;;
64826;SDS011;51265;53.972;12.286;2023-11-25T13:25:59;1.73;;;0.50;;
64826;SDS011;51265;53.972;12.286;2023-11-25T13:28:25;3.05;;;0.60;;
64826;SDS011;51265;53.972;12.286;2023-11-25T13:30:52;2.90;;;0.57;;
64826;SDS011;51265;53.972;12.286;2023-11-25T13:33:18;0.35;;;0.30;;
64826;SDS011;51265;53.972;12.286;2023-11-25T13:35:44;1.67;;;0.40;;
64826;SDS011;51265;53.972;12.286;2023-11-25T13:38:11;2.88;;;0.60;;
64826;SDS011;51265;53.972;12.286;2023-11-25T13:40:41;1.90;;;0.45;;
64826;SDS011;51265;53.972;12.286;2023-11-25T13:43:09;2.03;;;0.55;;
64826;SDS011;51265;53.972;12.286;2023-11-25T13:45:39;1.38;;;0.50;;
64826;SDS011;51265;53.972;12.286;2023-11-25T13:48:06;1.77;;;0.40;;
64826;SDS011;51265;53.972;12.286;2023-11-25T13:50:33;1.65;;;0.68;;
64826;SDS011;51265;53.972;12.286;2023-11-25T13:53:00;3.00;;;0.47;;
64826;SDS011;51265;53.972;12.286;2023-11-25T13:55:27;1.17;;;0.43;;
64826;SDS011;51265;53.972;12.286;2023-11-25T13:57:56;2.28;;;0.50;;
64826;SDS011;51265;53.972;12.286;2023-11-25T14:00:22;1.77;;;0.32;;
64826;SDS011;51265;53.972;12.286;2023-11-25T14:02:48;0.88;;;0.30;;
64826;SDS011;51265;53.972;12.286;2023-11-25T14:05:15;1.45;;;0.40;;
64826;SDS011;51265;53.972;12.286;2023-11-25T14:07:41;1.55;;;0.40;;
64826;SDS011;51265;53.972;12.286;2023-11-25T14:10:08;1.27;;;0.52;;
64826;SDS011;51265;53.972;12.286;2023-11-25T14:12:35;0.77;;;0.28;;
64826;SDS011;51265;53.972;12.286;2023-11-25T14:15:02;0.77;;;0.30;;
64826;SDS011;51265;53.972;12.286;2023-11-25T14:17:30;1.75;;;0.35;;
64826;SDS011;51265;53.972;12.286;2023-11-25T14:19:57;0.95;;;0.32;;
64826;SDS011;51265;53.972;12.286;2023-11-25T14:22:23;0.85;;;0.38;;
64826;SDS011;51265;53.972;12.286;2023-11-25T14:24:49;1.80;;;0.40;;
64826;SDS011;51265;53.972;12.286;2023-11-25T14:27:18;2.10;;;0.45;;
64826;SDS011;51265;53.972;12.286;2023-11-25T14:29:44;1.85;;;0.40;;
64826;SDS011;51265;53.972;12.286;2023-11-25T14:32:10;1.67;;;0.30;;
64826;SDS011;51265;53.972;12.286;2023-11-25T14:34:37;0.55;;;0.22;;
64826;SDS011;51265;53.972;12.286;2023-11-25T14:37:04;1.92;;;0.30;;
64826;SDS011;51265;53.972;12.286;2023-11-25T14:39:30;0.45;;;0.30;;
64826;SDS011;51265;53.972;12.286;2023-11-25T14:42:02;1.17;;;0.40;;
64826;SDS011;51265;53.972;12.286;2023-11-25T14:44:29;1.77;;;0.45;;
64826;SDS011;51265;53.972;12.286;2023-11-25T14:46:55;0.63;;;0.20;;
64826;SDS011;51265;53.972;12.286;2023-11-25T14:49:22;3.40;;;1.17;;
64826;SDS011;51265;53.972;12.286;2023-11-25T14:51:50;1.38;;;0.30;;